Warning: Javascript must be enabled to use all the features on this page!


Page Loading - Please Wait...

Click to hideNews Bulletins

Peak Streamflow for the Nation

USGS 02415000 HILLABEE CREEK NEAR HACKNEYVILLE AL

Tallapoosa County, Alabama
Hydrologic Unit Code 03150109
Latitude  33°03'55", Longitude  85°52'41" NAD27
Drainage area 190.00  square miles
Contributing drainage area 190.00  square miles
Gage datum 557.92 feet above NGVD29
Output formats
Table
Graph
Tab-separated file
peakfq (watstore) format
Reselect output format
Water
Year
Date Gage
Height
(feet)
Stream-
flow
(cfs)
1953 1953-01-08 16.90 6,800
1954 1954-04-29 13.90 4,300
1955 1955-04-14 19.10 8,600
1956 1956-03-16 23.60 14,200
1957 1957-04-05 25.70 17,800
1958 1958-02-06 18.00 7,650
1959 1959-03-12 14.10 4,500
1960 1960-03-30 15.81 5,900
1961 1961-02-25 20.97 10,500
1962 1961-12-18 21.02 10,700
1963 1963-03-13 19.82 9,200
1964 1964-04-06 23.74 14,300
1965 1965-03-17 14.41 4,900
1966 1966-05-13 18.06 6,650
1967 1966-10-19 15.97 6,000
1968 1968-04-05 19.87 9,250
1969 1969-04-18 15.52 5,600
1970 1970-03-20 20.43 9,800
1971 1971-03-03 20.60 10,000
1972 1972-01-11 23.62 14,000
1973 1973-05-08 21.82 11,500
1979 1979-04-13 28.10 23,0007
1986 1985-12-13 10.65 1,890
1987 1987-01-19 16.08 4,700
1988 1988-09-17 22.43 11,000
1989 1989-06-19 18.77 6,900
1990 1990-03-16 25.59 17,700
1991 1991-03-29 13.55 3,200
1992 1992-02-25 15.73 4,600
1993 1992-12-17 20.03 8,200
1994 1994-04-16 20.14 8,250
1995 1995-03-08 18.39 6,550
1996 1995-10-05 23.02 12,200
1997 1997-03-01 20.14 8,250
1998 1998-03-08 21.54 10,000
1999 1999-01-31 12.79 2,820
2000 2000-04-04 11.04 2,010
2001 2001-04-04 20.66 8,800
2002 2002-01-25 11.55 2,250
2003 2003-05-08 25.59 17,700
2004 2004-09-17 18.23 7,900
2005 2005-07-07 19.06 8,610
2006 2006-03-21 11.86 3,000
2007 2006-11-15 18.27 7,930
2008 2007-11-15 18.27 7,930
2009 2009-09-19 18.29 7,950
2010 2010-05-10 20.96 10,600
2011 2011-03-09 15.91 5,980
2012 2012-03-03 16.81 6,740
2013 2013-07-07 15.53 5,660
2014 2014-04-07 21.24 10,900
2015 2015-01-04 16.95 6,850
2016 2015-12-30 16.87 6,790
2017 2017-06-30 20.232 16,900
2018 2018-02-04 14.21 4,310
2019 2019-01-24 18.47 9,380
?
  Peak Gage-Height Qualification Codes.
?
  Peak Streamflow Qualification Codes.